Time;durP1;ratioP1;P1;durP2;ratioP2;P2;SDS_P1;SDS_P2;PMS_P1;PMS_P2;Temp;Humidity;BMP_temperature;BMP_pressure;BME280_temperature;BME280_humidity;BME280_pressure;Samples;Min_cycle;Max_cycle;Signal;HPM_P1;HPM_P2
2023/09/27 00:01:56;;;;;;;9.85;7.15;;;17.00;99.90;;;;;;5107054;28;20027;-69
2023/09/27 00:04:22;;;;;;;9.90;7.28;;;17.00;99.90;;;;;;5106971;28;20043;-69
2023/09/27 00:06:47;;;;;;;7.63;6.43;;;17.00;99.90;;;;;;5107246;28;20031;-69
2023/09/27 00:09:14;;;;;;;9.82;6.60;;;16.90;99.90;;;;;;5103826;28;20032;-68
2023/09/27 00:11:40;;;;;;;8.50;6.90;;;16.90;99.90;;;;;;5107101;28;20073;-69
2023/09/27 00:14:06;;;;;;;9.70;6.65;;;16.90;99.90;;;;;;5106886;28;20186;-69
2023/09/27 00:16:32;;;;;;;9.13;6.82;;;16.90;99.90;;;;;;5105472;28;20035;-69
2023/09/27 00:18:58;;;;;;;9.43;6.93;;;16.80;99.90;;;;;;5103044;28;20134;-69
2023/09/27 00:21:23;;;;;;;12.45;7.75;;;16.80;99.90;;;;;;5105776;28;20043;-69
2023/09/27 00:23:49;;;;;;;9.50;7.20;;;16.80;99.90;;;;;;5106800;28;20731;-68
2023/09/27 00:26:15;;;;;;;11.35;7.53;;;16.70;99.90;;;;;;5106518;28;20173;-68
2023/09/27 00:28:45;;;;;;;9.50;7.18;;;16.70;99.90;;;;;;5106719;28;20020;-68
2023/09/27 00:31:11;;;;;;;11.02;7.63;;;16.70;99.90;;;;;;5105895;28;20056;-69
2023/09/27 00:33:37;;;;;;;10.18;6.97;;;16.70;99.90;;;;;;5106799;28;20027;-68
2023/09/27 00:36:03;;;;;;;13.63;8.55;;;16.60;99.90;;;;;;5101459;28;20038;-68
2023/09/27 00:38:28;;;;;;;13.30;8.00;;;16.70;99.90;;;;;;5105114;28;20501;-67
2023/09/27 00:40:54;;;;;;;10.32;7.88;;;16.60;99.90;;;;;;5105099;28;20031;-69
2023/09/27 00:43:27;;;;;;;13.88;8.27;;;16.60;99.90;;;;;;5104088;28;20028;-69
2023/09/27 00:46:06;;;;;;;8.73;7.32;;;16.50;99.90;;;;;;5106316;28;20505;-69
2023/09/27 00:48:34;;;;;;;11.48;7.75;;;16.50;99.90;;;;;;5104199;28;20593;-69
2023/09/27 00:51:01;;;;;;;11.25;7.72;;;16.40;99.90;;;;;;5104601;28;20154;-69
2023/09/27 00:53:31;;;;;;;12.77;7.78;;;16.40;99.90;;;;;;5104012;28;20546;-68
2023/09/27 00:55:57;;;;;;;12.60;8.10;;;16.40;99.90;;;;;;5094780;28;20043;-69
2023/09/27 00:58:24;;;;;;;11.35;8.02;;;16.40;99.90;;;;;;5102927;28;20064;-69
2023/09/27 01:00:51;;;;;;;13.40;8.00;;;16.30;99.90;;;;;;5106142;28;20126;-68
2023/09/27 01:03:18;;;;;;;11.15;8.05;;;16.40;99.90;;;;;;5103904;28;20035;-69
2023/09/27 01:05:44;;;;;;;11.70;8.07;;;16.40;99.90;;;;;;5103967;28;20050;-69
2023/09/27 01:08:12;;;;;;;12.73;7.90;;;16.40;99.90;;;;;;5102739;28;20023;-69
2023/09/27 01:10:38;;;;;;;10.73;7.15;;;16.40;99.90;;;;;;5102979;28;20034;-69
2023/09/27 01:13:05;;;;;;;9.73;7.28;;;16.30;99.90;;;;;;5102868;28;20035;-68
2023/09/27 01:15:32;;;;;;;11.85;6.90;;;16.20;99.90;;;;;;5104345;28;20756;-68
2023/09/27 01:18:00;;;;;;;9.02;6.70;;;16.20;99.90;;;;;;5098126;28;20043;-68
2023/09/27 01:20:27;;;;;;;9.30;6.55;;;16.20;99.90;;;;;;5105930;28;20043;-68
2023/09/27 01:23:00;;;;;;;8.98;6.78;;;16.10;99.90;;;;;;5104502;28;20031;-69
2023/09/27 01:25:36;;;;;;;11.48;7.10;;;16.10;99.90;;;;;;5100414;28;20035;-68
2023/09/27 01:28:06;;;;;;;11.27;7.90;;;16.10;99.90;;;;;;5102346;28;20027;-68
2023/09/27 01:30:32;;;;;;;11.15;7.68;;;16.00;99.90;;;;;;5102136;28;20035;-69
2023/09/27 01:33:05;;;;;;;9.75;6.78;;;16.00;99.90;;;;;;5098023;28;20113;-69
2023/09/27 01:35:40;;;;;;;8.30;6.82;;;16.00;99.90;;;;;;5103623;28;20032;-68
2023/09/27 01:38:07;;;;;;;7.68;6.28;;;16.00;99.90;;;;;;5104883;28;20036;-69
2023/09/27 01:40:35;;;;;;;11.00;7.03;;;16.00;99.90;;;;;;5102010;28;20110;-68
2023/09/27 01:43:02;;;;;;;10.02;7.65;;;16.00;99.90;;;;;;5101344;28;20035;-68
2023/09/27 01:45:30;;;;;;;11.98;7.60;;;16.00;99.90;;;;;;5102064;28;20454;-69
2023/09/27 01:47:56;;;;;;;10.70;6.93;;;16.00;99.90;;;;;;5104277;28;20096;-68
2023/09/27 01:50:24;;;;;;;10.75;7.60;;;16.00;99.90;;;;;;5103774;28;20036;-69
2023/09/27 01:53:00;;;;;;;13.30;8.18;;;16.00;99.90;;;;;;5100915;28;20107;-68
2023/09/27 01:55:26;;;;;;;12.73;8.60;;;16.00;99.90;;;;;;5101210;28;20058;-69
2023/09/27 01:57:53;;;;;;;13.82;7.82;;;15.90;99.90;;;;;;5105297;28;20036;-68
2023/09/27 02:00:19;;;;;;;11.48;7.95;;;15.90;99.90;;;;;;5103834;28;20062;-68
2023/09/27 02:02:51;;;;;;;10.57;7.90;;;15.90;99.90;;;;;;5104909;28;20035;-69
2023/09/27 02:05:17;;;;;;;9.68;7.03;;;15.90;99.90;;;;;;5098187;28;20050;-68
2023/09/27 02:07:43;;;;;;;9.85;7.68;;;15.90;99.90;;;;;;5101445;28;20028;-70
2023/09/27 02:10:10;;;;;;;10.18;7.30;;;15.90;99.90;;;;;;5103072;28;20548;-68
2023/09/27 02:12:36;;;;;;;13.23;9.18;;;15.90;99.90;;;;;;5103446;28;20126;-69
2023/09/27 02:15:13;;;;;;;12.40;8.32;;;15.90;99.90;;;;;;5103115;28;20031;-69
2023/09/27 02:17:40;;;;;;;13.18;8.20;;;15.90;99.90;;;;;;5098722;28;20039;-68
2023/09/27 02:20:09;;;;;;;10.73;6.90;;;15.80;99.90;;;;;;5103336;28;20077;-69
2023/09/27 02:22:36;;;;;;;12.48;7.68;;;15.80;99.90;;;;;;5098482;28;20027;-68
2023/09/27 02:25:02;;;;;;;9.38;7.20;;;15.80;99.90;;;;;;5094392;28;20036;-68
2023/09/27 02:27:28;;;;;;;8.93;6.95;;;15.80;99.90;;;;;;5104141;28;20027;-68
2023/09/27 02:29:54;;;;;;;10.45;7.60;;;15.80;99.90;;;;;;5103180;28;20456;-69
2023/09/27 02:32:20;;;;;;;10.60;7.93;;;15.80;99.90;;;;;;5099072;28;20110;-69
2023/09/27 02:34:46;;;;;;;9.30;6.82;;;15.80;99.90;;;;;;5102995;28;20031;-68
2023/09/27 02:37:15;;;;;;;11.95;7.30;;;15.80;99.90;;;;;;5104651;28;20040;-68
2023/09/27 02:39:42;;;;;;;13.52;8.02;;;15.80;99.90;;;;;;5103552;28;20496;-69
2023/09/27 02:42:10;;;;;;;12.32;7.57;;;15.80;99.90;;;;;;5104439;28;20092;-68
2023/09/27 02:44:36;;;;;;;10.48;7.05;;;15.80;99.90;;;;;;5096231;28;20026;-69
2023/09/27 02:47:02;;;;;;;12.40;8.00;;;15.80;99.90;;;;;;5104498;28;20027;-68
2023/09/27 02:49:28;;;;;;;10.57;7.60;;;15.90;99.90;;;;;;5104521;28;20037;-69
2023/09/27 02:51:55;;;;;;;10.43;7.78;;;15.90;99.90;;;;;;5099579;28;20502;-69
2023/09/27 02:54:21;;;;;;;11.13;7.70;;;15.90;99.90;;;;;;5102358;28;20038;-68
2023/09/27 02:56:47;;;;;;;14.32;8.48;;;15.90;99.90;;;;;;5102924;28;20036;-68
2023/09/27 02:59:13;;;;;;;14.30;8.30;;;15.90;99.90;;;;;;5102643;28;20484;-69
2023/09/27 03:01:41;;;;;;;13.48;8.80;;;15.90;99.90;;;;;;5103032;28;20671;-68
2023/09/27 03:04:11;;;;;;;13.60;8.18;;;15.90;99.90;;;;;;5097715;28;20715;-69
2023/09/27 03:06:38;;;;;;;14.52;8.93;;;15.80;99.90;;;;;;5096677;28;20455;-68
2023/09/27 03:09:05;;;;;;;14.38;8.30;;;15.70;99.90;;;;;;5104695;28;20051;-68
2023/09/27 03:11:33;;;;;;;14.98;9.02;;;15.60;99.90;;;;;;5102792;28;20875;-68
2023/09/27 03:14:00;;;;;;;12.48;8.23;;;15.60;99.90;;;;;;5098665;28;20027;-69
2023/09/27 03:16:26;;;;;;;14.32;9.07;;;15.50;99.90;;;;;;5107653;28;20104;-68
2023/09/27 03:18:54;;;;;;;14.52;8.90;;;15.40;99.90;;;;;;5102592;28;20028;-68
2023/09/27 03:21:21;;;;;;;17.80;11.20;;;15.40;99.90;;;;;;5102956;28;20043;-68
2023/09/27 03:23:47;;;;;;;18.65;12.82;;;15.30;99.90;;;;;;5106643;28;20127;-68
2023/09/27 03:26:13;;;;;;;20.27;12.55;;;15.40;99.90;;;;;;5104861;27;20131;-68
2023/09/27 03:28:40;;;;;;;17.88;10.93;;;15.40;99.90;;;;;;5106005;28;20023;-68
2023/09/27 03:31:06;;;;;;;15.73;10.93;;;15.40;99.90;;;;;;5106245;28;20755;-68
2023/09/27 03:33:32;;;;;;;17.42;10.50;;;15.40;99.90;;;;;;5102317;28;20035;-69
2023/09/27 03:36:02;;;;;;;11.80;8.05;;;15.50;99.90;;;;;;5106262;28;20028;-68
2023/09/27 03:38:27;;;;;;;10.05;7.53;;;15.50;99.90;;;;;;5106009;28;20058;-69
2023/09/27 03:40:54;;;;;;;10.32;7.53;;;15.50;99.90;;;;;;5105727;28;20559;-69
2023/09/27 03:43:19;;;;;;;11.27;8.45;;;15.50;99.90;;;;;;5105550;28;20140;-68
2023/09/27 03:45:45;;;;;;;22.00;12.95;;;15.50;99.90;;;;;;5106199;28;20066;-68
2023/09/27 03:48:11;;;;;;;20.05;12.75;;;15.50;99.90;;;;;;5102101;28;20035;-68
2023/09/27 03:50:37;;;;;;;19.45;10.07;;;15.60;99.90;;;;;;5107581;28;20032;-68
2023/09/27 03:53:04;;;;;;;19.58;10.93;;;15.60;99.90;;;;;;5102182;28;20038;-68
2023/09/27 03:55:30;;;;;;;16.13;11.05;;;15.60;99.90;;;;;;5103647;28;20475;-68
2023/09/27 03:57:56;;;;;;;15.02;9.57;;;15.60;99.90;;;;;;5103510;28;20032;-68
2023/09/27 04:00:22;;;;;;;15.93;10.25;;;15.50;99.90;;;;;;5103646;28;20028;-69
2023/09/27 04:02:48;;;;;;;14.32;9.95;;;15.60;99.90;;;;;;5103239;28;20024;-68
2023/09/27 04:05:16;;;;;;;20.38;11.05;;;15.60;99.90;;;;;;5102643;28;20764;-68
2023/09/27 04:07:42;;;;;;;22.05;12.25;;;15.60;99.90;;;;;;5102708;28;20035;-68
2023/09/27 04:10:08;;;;;;;18.02;12.27;;;15.60;99.90;;;;;;5105711;28;20026;-69
2023/09/27 04:12:35;;;;;;;14.20;10.32;;;15.60;99.90;;;;;;5100597;28;20039;-68
2023/09/27 04:15:04;;;;;;;15.55;10.43;;;15.60;99.90;;;;;;5106871;28;20690;-68
2023/09/27 04:17:30;;;;;;;14.68;9.30;;;15.60;99.90;;;;;;5106532;28;20039;-68
2023/09/27 04:19:56;;;;;;;15.82;9.50;;;15.50;99.90;;;;;;5106820;28;20047;-69
2023/09/27 04:22:22;;;;;;;12.70;8.98;;;15.50;99.90;;;;;;5106926;28;20119;-68
2023/09/27 04:24:48;;;;;;;16.00;9.75;;;15.50;99.90;;;;;;5104326;28;20705;-68
2023/09/27 04:27:13;;;;;;;14.10;9.57;;;15.50;99.90;;;;;;5098476;28;20033;-69
2023/09/27 04:29:39;;;;;;;19.55;11.55;;;15.50;99.90;;;;;;5106956;28;20020;-69
2023/09/27 04:32:05;;;;;;;17.00;11.20;;;15.50;99.90;;;;;;5106701;28;20368;-69
2023/09/27 04:34:30;;;;;;;16.90;11.05;;;15.50;99.90;;;;;;5104915;28;20112;-68
2023/09/27 04:36:56;;;;;;;17.00;9.70;;;15.50;99.90;;;;;;5106410;28;20023;-68
2023/09/27 04:39:27;;;;;;;15.75;11.02;;;15.40;99.90;;;;;;5106427;28;20027;-68
2023/09/27 04:41:53;;;;;;;13.32;9.30;;;15.40;99.90;;;;;;5103937;28;20599;-69
2023/09/27 04:44:19;;;;;;;14.23;9.60;;;15.40;99.90;;;;;;5106215;28;20027;-69
2023/09/27 04:46:45;;;;;;;13.40;9.63;;;15.30;99.90;;;;;;5104850;28;20514;-69
2023/09/27 04:49:10;;;;;;;14.02;8.90;;;15.30;99.90;;;;;;5106397;28;20235;-68
2023/09/27 04:51:36;;;;;;;13.30;9.10;;;15.30;99.90;;;;;;5103735;28;20026;-69
2023/09/27 04:54:03;;;;;;;14.50;9.05;;;15.30;99.90;;;;;;5106214;28;20027;-69
2023/09/27 04:56:31;;;;;;;12.57;9.02;;;15.30;99.90;;;;;;5105941;28;20039;-68
2023/09/27 04:58:58;;;;;;;16.73;9.82;;;15.30;99.90;;;;;;5104671;28;20036;-68
2023/09/27 05:01:26;;;;;;;13.23;9.45;;;15.40;99.90;;;;;;5105854;28;20031;-69
2023/09/27 05:03:51;;;;;;;14.00;9.38;;;15.40;99.90;;;;;;5104336;28;20040;-69
2023/09/27 05:06:17;;;;;;;14.77;10.15;;;15.40;99.90;;;;;;5105385;28;20019;-69
2023/09/27 05:08:43;;;;;;;15.73;10.88;;;15.40;99.90;;;;;;5105672;28;20019;-68
2023/09/27 05:11:09;;;;;;;14.85;9.65;;;15.40;99.90;;;;;;5104759;28;20086;-69
2023/09/27 05:13:35;;;;;;;15.88;10.23;;;15.50;99.90;;;;;;5105702;28;20672;-69
2023/09/27 05:16:00;;;;;;;12.10;8.63;;;15.40;99.90;;;;;;5105834;28;20407;-69
2023/09/27 05:18:26;;;;;;;15.73;10.95;;;15.50;99.90;;;;;;5102220;28;20101;-69
2023/09/27 05:20:52;;;;;;;12.27;9.90;;;15.50;99.90;;;;;;5105205;28;20073;-69
2023/09/27 05:23:17;;;;;;;14.88;9.55;;;15.50;99.90;;;;;;5105556;28;20118;-68
2023/09/27 05:25:44;;;;;;;13.95;9.48;;;15.50;99.90;;;;;;5103958;28;20130;-68
2023/09/27 05:28:09;;;;;;;16.42;10.15;;;15.50;99.90;;;;;;5103133;28;20024;-69
2023/09/27 05:30:36;;;;;;;13.15;9.48;;;15.60;99.90;;;;;;5105727;28;20028;-68
2023/09/27 05:33:05;;;;;;;12.40;8.68;;;15.60;99.90;;;;;;5105307;28;20038;-68
2023/09/27 05:35:31;;;;;;;17.00;10.30;;;15.60;99.90;;;;;;5105244;27;20032;-69
2023/09/27 05:37:58;;;;;;;12.15;8.52;;;15.50;99.90;;;;;;5105367;28;20038;-68
2023/09/27 05:40:24;;;;;;;11.82;8.60;;;15.60;99.90;;;;;;5105554;28;20027;-69
2023/09/27 05:42:50;;;;;;;12.52;8.90;;;15.50;99.90;;;;;;5104981;28;20034;-68
2023/09/27 05:45:16;;;;;;;14.48;8.65;;;15.50;99.90;;;;;;5103202;28;20394;-68
2023/09/27 05:47:42;;;;;;;13.27;9.23;;;15.50;99.90;;;;;;5105036;28;20554;-67
2023/09/27 05:50:08;;;;;;;12.63;8.27;;;15.50;99.90;;;;;;5105260;28;20027;-69
2023/09/27 05:52:38;;;;;;;11.48;7.60;;;15.50;99.90;;;;;;5105269;28;20111;-69
2023/09/27 05:55:05;;;;;;;12.05;8.68;;;15.50;99.90;;;;;;5101558;28;20031;-68
2023/09/27 05:57:32;;;;;;;11.70;8.43;;;15.50;99.90;;;;;;5103024;28;20054;-68
2023/09/27 05:59:58;;;;;;;11.13;7.60;;;15.50;99.90;;;;;;5101255;28;20030;-69
2023/09/27 06:02:30;;;;;;;13.18;8.57;;;15.50;99.90;;;;;;5101648;28;20097;-69
2023/09/27 06:04:57;;;;;;;12.70;7.82;;;15.50;99.90;;;;;;5101040;28;20034;-68
2023/09/27 06:07:23;;;;;;;12.75;7.82;;;15.50;99.90;;;;;;5104671;28;20032;-68
2023/09/27 06:09:50;;;;;;;11.45;8.50;;;15.60;99.90;;;;;;5103827;28;20763;-68
2023/09/27 06:12:16;;;;;;;15.00;9.57;;;15.60;99.90;;;;;;5104961;28;20066;-69
2023/09/27 06:14:42;;;;;;;12.60;9.65;;;15.70;99.90;;;;;;5104026;28;20076;-69
2023/09/27 06:17:08;;;;;;;12.10;8.50;;;15.70;99.90;;;;;;5104698;28;20442;-68
2023/09/27 06:19:34;;;;;;;13.02;7.72;;;15.70;99.90;;;;;;5105220;28;20024;-69
2023/09/27 06:22:04;;;;;;;9.98;6.75;;;15.80;99.90;;;;;;5104862;28;20041;-69
2023/09/27 06:24:30;;;;;;;9.75;7.07;;;15.80;99.90;;;;;;5104904;28;20027;-68
2023/09/27 06:26:56;;;;;;;10.82;6.53;;;15.90;99.90;;;;;;5103251;28;20077;-68
2023/09/27 06:29:22;;;;;;;8.32;6.15;;;15.90;99.90;;;;;;5101753;28;20873;-68
2023/09/27 06:31:49;;;;;;;9.10;6.50;;;15.90;99.90;;;;;;5102641;28;20031;-69
2023/09/27 06:34:16;;;;;;;10.75;7.30;;;15.90;99.90;;;;;;5100294;28;20044;-69
2023/09/27 06:36:42;;;;;;;13.48;9.25;;;15.90;99.90;;;;;;5096392;28;20031;-69
2023/09/27 06:39:15;;;;;;;14.45;9.05;;;16.00;99.90;;;;;;5104611;28;20676;-68
2023/09/27 06:41:42;;;;;;;13.43;9.07;;;16.00;99.90;;;;;;5104568;28;20032;-69
2023/09/27 06:44:08;;;;;;;12.32;8.55;;;16.10;99.90;;;;;;5093806;28;20024;-69
2023/09/27 06:46:35;;;;;;;9.85;7.05;;;16.10;99.90;;;;;;5103801;28;20689;-69
2023/09/27 06:49:01;;;;;;;14.43;9.00;;;16.20;99.90;;;;;;5103215;28;20023;-69
2023/09/27 06:51:27;;;;;;;10.50;7.90;;;16.20;99.90;;;;;;5104361;28;20531;-69
2023/09/27 06:53:53;;;;;;;10.70;7.85;;;16.30;99.90;;;;;;5097456;28;20110;-68
2023/09/27 06:56:19;;;;;;;10.77;7.90;;;16.30;99.90;;;;;;5100704;28;20035;-68
2023/09/27 06:58:44;;;;;;;11.15;7.95;;;16.40;99.90;;;;;;5106511;28;20129;-68
2023/09/27 07:01:11;;;;;;;11.13;8.30;;;16.40;99.90;;;;;;5107158;28;20027;-69
2023/09/27 07:03:37;;;;;;;13.40;9.30;;;16.50;99.90;;;;;;5108388;28;20051;-68
2023/09/27 07:06:03;;;;;;;12.70;9.75;;;16.60;99.90;;;;;;5107011;28;20049;-68
2023/09/27 07:08:29;;;;;;;15.48;10.00;;;16.70;99.90;;;;;;5106415;28;20787;-68
2023/09/27 07:11:04;;;;;;;17.92;11.30;;;16.80;99.90;;;;;;5106695;28;20823;-68
2023/09/27 07:13:30;;;;;;;15.85;10.60;;;17.00;99.90;;;;;;5104102;28;20051;-68
2023/09/27 07:15:56;;;;;;;16.05;11.45;;;17.20;99.90;;;;;;5108221;28;20028;-69
2023/09/27 07:18:23;;;;;;;17.27;12.18;;;17.40;99.90;;;;;;5104979;28;20047;-69
2023/09/27 07:20:50;;;;;;;18.95;12.90;;;17.60;99.90;;;;;;5107252;28;20027;-68
2023/09/27 07:23:16;;;;;;;17.33;12.00;;;17.90;99.90;;;;;;5105885;27;20108;-69
2023/09/27 07:25:44;;;;;;;20.70;13.50;;;18.10;99.90;;;;;;5107706;28;20063;-69
2023/09/27 07:28:10;;;;;;;16.58;11.57;;;18.40;99.90;;;;;;5107729;28;20181;-68
2023/09/27 07:30:37;;;;;;;16.92;11.50;;;18.60;99.90;;;;;;5100487;28;20054;-69
2023/09/27 07:33:10;;;;;;;15.32;10.88;;;18.70;99.90;;;;;;5099964;28;20120;-68
2023/09/27 07:35:44;;;;;;;13.82;10.38;;;18.80;99.90;;;;;;5107003;28;20115;-69
2023/09/27 07:38:13;;;;;;;17.00;11.43;;;18.80;99.90;;;;;;5103113;28;20032;-69
2023/09/27 07:40:39;;;;;;;17.55;11.43;;;18.80;99.90;;;;;;5107588;28;20043;-69
2023/09/27 07:43:05;;;;;;;15.20;10.88;;;18.80;99.90;;;;;;5107273;28;20024;-69
2023/09/27 07:45:34;;;;;;;16.65;11.68;;;18.80;99.90;;;;;;5103281;28;20099;-68
2023/09/27 07:48:00;;;;;;;16.27;10.80;;;18.80;99.90;;;;;;5105790;28;20023;-69
2023/09/27 07:50:28;;;;;;;15.45;10.75;;;18.80;99.90;;;;;;5107694;28;20034;-68
2023/09/27 07:52:54;;;;;;;13.88;10.05;;;18.80;99.90;;;;;;5106966;28;20031;-69
2023/09/27 07:55:21;;;;;;;17.42;12.07;;;18.90;99.90;;;;;;5104845;28;20050;-69
2023/09/27 07:57:49;;;;;;;15.52;11.00;;;19.00;99.90;;;;;;5106410;28;20106;-69
2023/09/27 08:00:15;;;;;;;14.50;9.57;;;19.00;99.90;;;;;;5103186;28;20120;-68
2023/09/27 08:02:45;;;;;;;14.43;10.50;;;19.00;99.90;;;;;;5105210;28;20705;-69
2023/09/27 08:05:14;;;;;;;17.90;10.88;;;19.10;99.90;;;;;;5106943;28;20073;-69
2023/09/27 08:07:40;;;;;;;14.68;10.07;;;19.20;99.90;;;;;;5105473;28;20047;-69
2023/09/27 08:10:08;;;;;;;19.08;12.35;;;19.20;99.90;;;;;;5107197;27;20028;-69
2023/09/27 08:12:34;;;;;;;13.85;10.27;;;19.30;99.90;;;;;;5106375;28;20641;-69
2023/09/27 08:15:03;;;;;;;14.98;11.32;;;19.40;99.90;;;;;;5107165;28;20134;-69
2023/09/27 08:17:29;;;;;;;16.92;11.02;;;19.50;99.90;;;;;;5106861;28;20382;-69
2023/09/27 08:19:56;;;;;;;14.75;10.50;;;19.70;99.90;;;;;;5107093;28;20065;-69
2023/09/27 08:22:21;;;;;;;19.65;10.80;;;19.80;99.90;;;;;;5105360;27;20044;-69
2023/09/27 08:24:47;;;;;;;13.85;10.48;;;19.90;99.90;;;;;;5106818;28;20039;-69
2023/09/27 08:27:13;;;;;;;12.88;9.93;;;20.00;99.90;;;;;;5106851;28;20120;-68
2023/09/27 08:29:39;;;;;;;20.45;12.05;;;20.00;99.90;;;;;;5106987;28;20395;-68
2023/09/27 08:32:06;;;;;;;10.90;9.15;;;20.20;99.90;;;;;;5107183;28;20128;-69
2023/09/27 08:34:33;;;;;;;13.13;9.50;;;20.30;99.90;;;;;;5106223;28;20035;-68
2023/09/27 08:36:59;;;;;;;13.68;10.40;;;20.40;99.90;;;;;;5106463;28;20079;-68
2023/09/27 08:39:26;;;;;;;15.00;9.63;;;20.40;99.90;;;;;;5106887;28;20042;-69
2023/09/27 08:41:55;;;;;;;11.98;9.00;;;20.50;99.90;;;;;;5106997;28;20042;-69
2023/09/27 08:44:23;;;;;;;18.15;10.77;;;20.60;99.90;;;;;;5098015;28;20396;-69
2023/09/27 08:46:50;;;;;;;14.82;10.73;;;20.80;99.90;;;;;;5105994;28;20026;-69
2023/09/27 08:49:17;;;;;;;11.90;9.55;;;21.10;99.90;;;;;;5106528;28;20075;-69
2023/09/27 08:51:45;;;;;;;13.00;8.68;;;21.40;99.90;;;;;;5101699;28;20023;-69
2023/09/27 08:54:16;;;;;;;10.77;7.20;;;21.90;99.90;;;;;;5100732;28;20147;-69
2023/09/27 08:56:49;;;;;;;7.00;5.95;;;22.40;99.90;;;;;;5106184;28;20685;-69
2023/09/27 08:59:19;;;;;;;7.78;5.80;;;22.90;99.90;;;;;;5106259;28;20023;-68
2023/09/27 09:01:47;;;;;;;10.68;7.90;;;23.20;99.10;;;;;;5097918;28;20089;-68
2023/09/27 09:04:13;;;;;;;9.88;7.43;;;23.30;99.00;;;;;;5106008;28;20042;-68
2023/09/27 09:06:40;;;;;;;7.07;6.00;;;23.40;98.80;;;;;;5105874;28;20031;-69
2023/09/27 09:09:10;;;;;;;9.27;7.43;;;23.30;98.90;;;;;;5106234;28;20023;-68
2023/09/27 09:11:54;;;;;;;11.55;7.13;;;23.30;99.00;;;;;;5101597;28;20069;-69
2023/09/27 09:14:43;;;;;;;9.68;6.25;;;23.40;98.90;;;;;;5105510;28;20420;-69
2023/09/27 09:17:10;;;;;;;10.82;6.80;;;23.40;98.40;;;;;;5101254;28;20035;-69
2023/09/27 09:19:41;;;;;;;8.20;6.32;;;23.40;98.30;;;;;;5104980;28;20039;-69
2023/09/27 09:22:09;;;;;;;9.93;6.75;;;23.50;97.70;;;;;;5106086;28;20035;-69
2023/09/27 09:24:36;;;;;;;11.70;6.43;;;23.50;97.60;;;;;;5105330;28;20119;-69
2023/09/27 09:27:09;;;;;;;8.60;5.57;;;23.50;97.70;;;;;;5105658;28;20194;-69
2023/09/27 09:29:53;;;;;;;12.13;6.22;;;23.60;98.00;;;;;;5105960;28;20032;-69
2023/09/27 09:32:26;;;;;;;11.82;5.60;;;23.70;97.90;;;;;;5105635;28;20058;-69
2023/09/27 09:34:53;;;;;;;9.20;5.80;;;23.80;97.40;;;;;;5105296;28;20028;-69
2023/09/27 09:37:29;;;;;;;8.70;5.60;;;23.90;97.60;;;;;;5105331;28;20024;-68
2023/09/27 09:40:14;;;;;;;;;;;23.90;97.50;;;;;;5106245;28;20518;-69
2023/09/27 09:42:42;;;;;;;8.95;5.30;;;23.90;97.30;;;;;;5105391;27;19958;-69
2023/09/27 09:45:12;;;;;;;6.25;4.82;;;24.00;97.60;;;;;;5105553;28;20027;-69
2023/09/27 09:47:40;;;;;;;7.05;4.43;;;24.10;96.50;;;;;;5105178;27;20027;-69
2023/09/27 09:50:08;;;;;;;5.80;4.45;;;24.30;95.20;;;;;;5103480;27;20030;-69
2023/09/27 09:52:39;;;;;;;5.15;3.88;;;24.40;95.10;;;;;;5105282;28;20035;-69
2023/09/27 09:55:11;;;;;;;8.15;3.70;;;24.50;93.40;;;;;;5105627;28;20148;-69
2023/09/27 09:57:40;;;;;;;6.10;3.50;;;24.50;93.40;;;;;;5103559;28;20772;-69
2023/09/27 10:00:18;;;;;;;9.77;3.70;;;24.50;93.70;;;;;;5105024;28;20555;-69
2023/09/27 10:02:53;;;;;;;7.35;4.18;;;24.60;93.90;;;;;;5095755;28;20530;-69
2023/09/27 10:05:22;;;;;;;4.30;3.45;;;24.70;93.00;;;;;;5102756;28;20537;-69
2023/09/27 10:07:50;;;;;;;5.22;3.42;;;24.80;92.50;;;;;;5104931;28;20031;-69
2023/09/27 10:10:20;;;;;;;5.88;3.47;;;25.00;92.60;;;;;;5105160;28;20069;-68
2023/09/27 10:12:50;;;;;;;6.22;3.25;;;25.60;91.80;;;;;;5096841;28;20046;-69
2023/09/27 10:15:18;;;;;;;4.75;3.00;;;26.00;91.20;;;;;;5105178;28;20073;-69
2023/09/27 10:17:45;;;;;;;4.20;3.00;;;26.20;90.60;;;;;;5104480;28;20506;-70
2023/09/27 10:20:13;;;;;;;4.28;3.25;;;26.30;90.10;;;;;;5105265;28;20640;-69
2023/09/27 10:22:45;;;;;;;6.82;3.35;;;26.50;89.20;;;;;;5104734;28;20042;-70
2023/09/27 10:25:26;;;;;;;8.15;3.00;;;27.00;86.40;;;;;;5103017;28;20360;-69
2023/09/27 10:28:01;;;;;;;8.95;3.38;;;27.70;83.50;;;;;;5095849;28;20032;-69
2023/09/27 10:30:48;;;;;;;4.40;3.03;;;28.40;81.10;;;;;;5101858;28;20066;-70
2023/09/27 10:33:17;;;;;;;6.13;3.22;;;28.20;81.00;;;;;;5108665;28;20047;-70
2023/09/27 10:35:44;;;;;;;5.32;3.20;;;27.80;82.80;;;;;;5109206;28;20027;-70
2023/09/27 10:38:10;;;;;;;5.10;3.30;;;27.60;82.30;;;;;;5108997;28;20031;-70
2023/09/27 10:40:46;;;;;;;5.13;4.13;;;27.40;82.90;;;;;;5106172;28;20032;-69
2023/09/27 10:43:32;;;;;;;4.68;3.53;;;27.60;82.30;;;;;;5103519;28;20038;-69
2023/09/27 10:45:59;;;;;;;7.30;4.07;;;28.40;80.30;;;;;;5093646;28;20054;-69
2023/09/27 10:48:25;;;;;;;4.50;3.97;;;28.40;81.60;;;;;;5108456;28;20036;-70
2023/09/27 10:50:58;;;;;;;4.47;3.92;;;28.40;81.00;;;;;;5108591;28;20092;-70
2023/09/27 10:53:27;;;;;;;5.20;3.80;;;28.30;81.10;;;;;;5108552;28;20073;-70
2023/09/27 10:55:53;;;;;;;6.95;4.05;;;28.20;82.10;;;;;;5109069;28;20031;-69
2023/09/27 10:58:19;;;;;;;5.90;3.95;;;28.20;81.30;;;;;;5103214;27;20114;-70
2023/09/27 11:00:55;;;;;;;4.65;3.47;;;28.40;82.00;;;;;;5109056;28;20036;-70
2023/09/27 11:03:23;;;;;;;8.98;3.50;;;28.30;79.90;;;;;;5103789;28;20032;-70
2023/09/27 11:05:50;;;;;;;5.50;3.47;;;28.00;80.40;;;;;;5108441;28;20491;-70
2023/09/27 11:08:25;;;;;;;8.18;3.47;;;27.80;81.80;;;;;;5104719;28;20434;-70
2023/09/27 11:10:52;;;;;;;5.00;3.00;;;27.70;80.50;;;;;;5106493;28;20553;-70
2023/09/27 11:13:19;;;;;;;3.60;2.83;;;27.50;81.60;;;;;;5103813;28;20578;-69
2023/09/27 11:15:45;;;;;;;5.32;3.10;;;27.40;81.00;;;;;;5105879;28;20035;-72
2023/09/27 11:18:11;;;;;;;4.75;3.10;;;27.30;80.90;;;;;;5100838;28;20261;-73
2023/09/27 11:20:40;;;;;;;4.38;2.90;;;27.20;81.20;;;;;;5107527;28;20209;-69
2023/09/27 11:23:07;;;;;;;8.00;3.45;;;27.20;80.40;;;;;;5104761;28;20035;-69
2023/09/27 11:25:34;;;;;;;4.20;3.70;;;27.10;80.20;;;;;;5107739;28;20042;-69
2023/09/27 11:28:01;;;;;;;4.13;3.13;;;26.90;81.50;;;;;;5104354;28;20483;-69
2023/09/27 11:30:31;;;;;;;4.40;3.20;;;27.00;80.80;;;;;;5108084;28;20034;-69
2023/09/27 11:33:04;;;;;;;3.72;2.63;;;27.00;80.20;;;;;;5104727;28;20037;-70
2023/09/27 11:35:31;;;;;;;6.03;3.33;;;27.00;79.20;;;;;;5107968;28;20551;-70
2023/09/27 11:38:13;;;;;;;3.58;3.00;;;27.00;79.60;;;;;;5107651;28;20070;-70
2023/09/27 11:40:41;;;;;;;4.45;2.83;;;27.00;79.70;;;;;;5107425;28;20040;-70
2023/09/27 11:43:07;;;;;;;5.20;3.25;;;27.10;78.80;;;;;;5107277;28;20190;-69
2023/09/27 11:45:43;;;;;;;6.35;3.53;;;27.10;81.10;;;;;;5106518;28;20494;-70
2023/09/27 11:48:09;;;;;;;3.40;3.10;;;27.10;79.40;;;;;;5104211;28;20472;-70
2023/09/27 11:50:35;;;;;;;6.07;3.45;;;27.10;80.20;;;;;;5107452;28;20092;-69
2023/09/27 11:53:01;;;;;;;5.72;2.95;;;27.10;79.00;;;;;;5107440;28;20577;-69
2023/09/27 11:55:27;;;;;;;5.95;3.22;;;27.10;79.80;;;;;;5107777;28;20104;-69
2023/09/27 11:57:57;;;;;;;5.30;2.90;;;27.10;79.10;;;;;;5103289;28;20036;-70
2023/09/27 12:00:23;;;;;;;5.85;2.92;;;27.10;79.60;;;;;;5107797;28;20030;-69
2023/09/27 12:02:49;;;;;;;7.22;3.20;;;27.10;78.70;;;;;;5103089;28;20404;-70
2023/09/27 12:05:15;;;;;;;5.82;3.08;;;27.20;78.20;;;;;;5107344;28;20073;-69
2023/09/27 12:07:43;;;;;;;6.20;3.22;;;27.10;77.80;;;;;;5103505;28;20031;-69
2023/09/27 12:10:12;;;;;;;5.78;3.25;;;27.00;77.70;;;;;;5106444;28;20551;-70
2023/09/27 12:12:38;;;;;;;3.88;3.03;;;27.00;78.50;;;;;;5104110;28;20039;-70
2023/09/27 12:15:04;;;;;;;6.65;2.92;;;27.00;79.00;;;;;;5106515;28;20080;-69
2023/09/27 12:17:30;;;;;;;3.80;2.67;;;27.10;78.90;;;;;;5101594;28;20074;-70
2023/09/27 12:19:56;;;;;;;8.95;3.63;;;27.10;77.80;;;;;;5107310;28;20055;-69
2023/09/27 12:22:24;;;;;;;4.07;2.97;;;27.10;77.80;;;;;;5107295;28;20066;-69
2023/09/27 12:24:50;;;;;;;3.78;2.80;;;27.20;78.40;;;;;;5106573;28;20053;-70
2023/09/27 12:27:16;;;;;;;7.47;3.13;;;27.20;78.60;;;;;;5103506;28;20118;-70
2023/09/27 12:29:42;;;;;;;5.63;3.00;;;27.20;77.00;;;;;;5106603;28;20691;-69
2023/09/27 12:32:08;;;;;;;6.85;2.97;;;27.20;78.00;;;;;;5106705;28;20038;-70
2023/09/27 12:34:34;;;;;;;4.65;2.97;;;27.20;75.70;;;;;;5106914;28;20039;-69
2023/09/27 12:37:00;;;;;;;6.07;3.38;;;27.20;76.00;;;;;;5106522;28;20047;-69
2023/09/27 12:39:26;;;;;;;6.00;3.05;;;27.10;75.90;;;;;;5106600;28;20023;-70
2023/09/27 12:41:51;;;;;;;5.85;2.95;;;27.10;76.70;;;;;;5106989;28;20517;-69